Time;durP1;ratioP1;P1;durP2;ratioP2;P2;SDS_P1;SDS_P2;PMS_P1;PMS_P2;Temp;Humidity;BMP_temperature;BMP_pressure;BME280_temperature;BME280_humidity;BME280_pressure;Samples;Min_cycle;Max_cycle;Signal;HPM_P1;HPM_P2
2022/05/17 00:00:15;;;;;;;2.75;1.40;;;;;;;;;;5122577;27;20244;-16
2022/05/17 00:02:42;;;;;;;3.03;1.48;;;;;;;;;;5123860;27;20235;-16
2022/05/17 00:05:10;;;;;;;2.90;1.60;;;;;;;;;;5121872;27;20220;-16
2022/05/17 00:07:38;;;;;;;4.68;1.65;;;;;;;;;;5125242;27;20222;-15
2022/05/17 00:10:05;;;;;;;8.10;2.10;;;;;;;;;;5121710;27;20213;-16
2022/05/17 00:12:34;;;;;;;4.65;1.83;;;;;;;;;;5121428;27;20216;-16
2022/05/17 00:15:01;;;;;;;3.13;1.75;;;;;;;;;;5116513;27;20223;-16
2022/05/17 00:17:29;;;;;;;2.00;1.65;;;;;;;;;;5124398;27;20223;-16
2022/05/17 00:19:56;;;;;;;2.28;1.50;;;;;;;;;;5121606;27;21074;-16
2022/05/17 00:22:23;;;;;;;2.63;1.30;;;;;;;;;;5123445;27;20243;-16
2022/05/17 00:24:51;;;;;;;4.50;1.50;;;;;;;;;;5120265;27;20228;-16
2022/05/17 00:27:18;;;;;;;3.17;2.08;;;;;;;;;;5122159;27;20254;-16
2022/05/17 00:29:47;;;;;;;3.40;1.60;;;;;;;;;;5121040;27;20750;-16
2022/05/17 00:32:14;;;;;;;3.47;1.85;;;;;;;;;;5122074;27;20236;-16
2022/05/17 00:34:41;;;;;;;3.25;1.67;;;;;;;;;;5123968;27;20298;-16
2022/05/17 00:37:09;;;;;;;4.32;1.50;;;;;;;;;;5120523;27;20230;-16
2022/05/17 00:39:36;;;;;;;6.47;1.83;;;;;;;;;;5121037;27;20695;-16
2022/05/17 00:42:04;;;;;;;2.80;1.90;;;;;;;;;;5117219;27;20224;-16
2022/05/17 00:44:43;;;;;;;4.32;1.65;;;;;;;;;;5116484;27;20219;-16
2022/05/17 00:47:12;;;;;;;3.45;1.90;;;;;;;;;;5118258;27;20231;-16
2022/05/17 00:49:40;;;;;;;4.78;1.50;;;;;;;;;;5121295;27;20311;-16
2022/05/17 00:52:09;;;;;;;2.28;1.50;;;;;;;;;;5118594;27;20607;-16
2022/05/17 00:54:36;;;;;;;3.80;1.60;;;;;;;;;;5124252;27;20227;-16
2022/05/17 00:57:05;;;;;;;4.05;2.00;;;;;;;;;;5120799;27;20223;-15
2022/05/17 00:59:33;;;;;;;2.80;1.73;;;;;;;;;;5120446;27;20232;-16
2022/05/17 01:02:00;;;;;;;3.60;2.00;;;;;;;;;;5124537;27;20234;-16
2022/05/17 01:04:29;;;;;;;4.05;1.83;;;;;;;;;;5118597;27;20232;-16
2022/05/17 01:06:59;;;;;;;2.80;1.50;;;;;;;;;;5122857;27;22041;-16
2022/05/17 01:09:26;;;;;;;3.30;1.80;;;;;;;;;;5118387;27;20237;-16
2022/05/17 01:11:53;;;;;;;4.50;2.05;;;;;;;;;;5117490;27;20236;-15
2022/05/17 01:17:05;;;;;;;2.28;1.63;;;;;;;;;;5117212;27;20833;-16
2022/05/17 01:19:34;;;;;;;2.70;1.65;;;;;;;;;;5116006;27;20721;-16
2022/05/17 01:22:03;;;;;;;3.90;1.90;;;;;;;;;;5115872;27;20271;-16
2022/05/17 01:24:30;;;;;;;4.45;1.90;;;;;;;;;;5124121;27;20318;-16
2022/05/17 01:27:00;;;;;;;3.35;1.80;;;;;;;;;;5118824;27;21032;-16
2022/05/17 01:29:27;;;;;;;4.00;1.65;;;;;;;;;;5120916;27;20312;-16
2022/05/17 01:31:55;;;;;;;2.60;1.75;;;;;;;;;;5120545;27;20275;-16
2022/05/17 01:34:22;;;;;;;3.33;1.40;;;;;;;;;;5121884;27;20232;-16
2022/05/17 01:36:49;;;;;;;3.15;1.73;;;;;;;;;;5115260;27;20224;-16
2022/05/17 01:39:18;;;;;;;3.67;1.80;;;;;;;;;;5121265;27;20230;-16
2022/05/17 01:41:45;;;;;;;3.88;1.75;;;;;;;;;;5124308;27;20865;-15
2022/05/17 01:44:13;;;;;;;2.15;1.45;;;;;;;;;;5121198;27;20223;-16
2022/05/17 01:46:40;;;;;;;3.15;1.60;;;;;;;;;;5119299;27;20315;-16
2022/05/17 01:49:07;;;;;;;1.90;1.33;;;;;;;;;;5122510;27;20232;-16
2022/05/17 01:51:34;;;;;;;2.63;1.60;;;;;;;;;;5123827;27;21066;-16
2022/05/17 01:54:02;;;;;;;2.70;1.50;;;;;;;;;;5115995;27;20232;-16
2022/05/17 01:56:30;;;;;;;3.38;1.88;;;;;;;;;;5123294;27;20212;-16
2022/05/17 01:58:58;;;;;;;2.63;1.50;;;;;;;;;;5118416;27;20228;-16
2022/05/17 02:01:26;;;;;;;2.72;1.52;;;;;;;;;;5123423;27;20236;-16
2022/05/17 02:03:53;;;;;;;4.78;1.67;;;;;;;;;;5121066;27;20251;-16
2022/05/17 02:06:22;;;;;;;2.60;1.80;;;;;;;;;;5122012;27;20220;-16
2022/05/17 02:08:50;;;;;;;5.28;1.63;;;;;;;;;;5121155;27;20231;-16
2022/05/17 02:11:17;;;;;;;2.35;1.48;;;;;;;;;;5119891;27;20224;-15
2022/05/17 02:13:46;;;;;;;2.03;1.35;;;;;;;;;;5122934;27;20211;-16
2022/05/17 02:16:13;;;;;;;2.25;1.58;;;;;;;;;;5120584;27;20208;-16
2022/05/17 02:18:46;;;;;;;3.85;1.60;;;;;;;;;;5122013;27;20608;-16
2022/05/17 02:21:13;;;;;;;2.88;1.48;;;;;;;;;;5129212;22;20331;-19
2022/05/17 02:23:41;;;;;;;2.10;1.48;;;;;;;;;;5101313;28;20229;-17
2022/05/17 02:26:08;;;;;;;3.00;1.70;;;;;;;;;;5103461;28;20233;-19
2022/05/17 02:28:36;;;;;;;1.95;1.48;;;;;;;;;;5098911;28;20239;-19
2022/05/17 02:31:05;;;;;;;3.53;1.60;;;;;;;;;;5098600;28;20225;-19
2022/05/17 02:33:32;;;;;;;3.05;1.50;;;;;;;;;;5102790;28;20233;-20
2022/05/17 02:36:00;;;;;;;3.85;1.50;;;;;;;;;;5102560;28;20258;-20
2022/05/17 02:38:27;;;;;;;3.13;1.60;;;;;;;;;;5099598;28;20229;-19
2022/05/17 02:40:54;;;;;;;3.25;1.40;;;;;;;;;;5101583;28;20236;-20
2022/05/17 02:43:22;;;;;;;1.98;1.63;;;;;;;;;;5101243;28;20229;-19
2022/05/17 02:45:50;;;;;;;2.45;1.45;;;;;;;;;;5100095;28;20287;-19
2022/05/17 02:48:18;;;;;;;2.40;1.60;;;;;;;;;;5098100;28;20257;-18
2022/05/17 02:50:46;;;;;;;3.00;1.58;;;;;;;;;;5103016;28;20849;-18
2022/05/17 02:53:13;;;;;;;2.88;1.40;;;;;;;;;;5100769;28;20286;-19
2022/05/17 02:55:40;;;;;;;2.33;1.30;;;;;;;;;;5104881;28;21032;-19
2022/05/17 02:58:08;;;;;;;2.70;1.50;;;;;;;;;;5102514;28;20228;-19
2022/05/17 03:00:35;;;;;;;3.10;1.70;;;;;;;;;;5102018;28;20228;-19
2022/05/17 03:03:03;;;;;;;3.58;1.48;;;;;;;;;;5102071;28;20716;-19
2022/05/17 03:05:32;;;;;;;2.28;1.45;;;;;;;;;;5105248;28;21045;-19
2022/05/17 03:07:59;;;;;;;2.95;1.50;;;;;;;;;;5106149;28;20235;-18
2022/05/17 03:10:27;;;;;;;2.45;1.50;;;;;;;;;;5106144;28;21038;-18
2022/05/17 03:12:54;;;;;;;4.07;1.60;;;;;;;;;;5103716;28;20232;-19
2022/05/17 03:15:22;;;;;;;2.92;1.60;;;;;;;;;;5104105;28;20251;-18
2022/05/17 03:17:50;;;;;;;2.70;1.92;;;;;;;;;;5105567;28;20926;-19
2022/05/17 03:20:17;;;;;;;3.95;1.70;;;;;;;;;;5103810;28;20232;-19
2022/05/17 03:22:46;;;;;;;2.30;1.40;;;;;;;;;;5102614;28;20232;-19
2022/05/17 03:25:13;;;;;;;4.15;1.40;;;;;;;;;;5104013;28;20719;-19
2022/05/17 03:27:52;;;;;;;3.72;1.77;;;;;;;;;;5104997;28;20318;-19
2022/05/17 03:30:19;;;;;;;7.28;1.77;;;;;;;;;;5105485;28;21220;-18
2022/05/17 03:32:46;;;;;;;2.63;1.55;;;;;;;;;;5102984;28;20227;-19
2022/05/17 03:35:14;;;;;;;4.53;1.90;;;;;;;;;;5103885;28;20228;-19
2022/05/17 03:37:41;;;;;;;3.70;1.45;;;;;;;;;;5104707;27;20249;-19
2022/05/17 03:40:11;;;;;;;2.10;1.20;;;;;;;;;;5106353;28;20220;-19
2022/05/17 03:42:38;;;;;;;2.58;1.70;;;;;;;;;;5105949;28;20319;-19
2022/05/17 03:45:07;;;;;;;2.97;1.75;;;;;;;;;;5104879;28;20290;-18
2022/05/17 03:47:34;;;;;;;3.13;1.65;;;;;;;;;;5101106;28;20687;-18
2022/05/17 03:50:02;;;;;;;2.88;1.50;;;;;;;;;;5104223;28;20232;-19
2022/05/17 03:52:30;;;;;;;2.60;1.38;;;;;;;;;;5101272;28;20247;-19
2022/05/17 03:54:57;;;;;;;1.88;1.38;;;;;;;;;;5104066;28;20694;-19
2022/05/17 03:57:26;;;;;;;3.20;1.60;;;;;;;;;;5102071;28;20236;-19
2022/05/17 03:59:53;;;;;;;2.38;1.50;;;;;;;;;;5104838;28;20238;-19
2022/05/17 04:02:21;;;;;;;3.45;1.90;;;;;;;;;;5103567;28;20664;-19
2022/05/17 04:04:51;;;;;;;2.60;1.35;;;;;;;;;;5102751;28;20730;-19
2022/05/17 04:07:19;;;;;;;3.35;1.60;;;;;;;;;;5102554;28;20231;-19
2022/05/17 04:09:46;;;;;;;3.55;1.45;;;;;;;;;;5102441;28;20700;-19
2022/05/17 04:12:13;;;;;;;3.65;1.52;;;;;;;;;;5103171;27;20232;-19
2022/05/17 04:14:42;;;;;;;3.78;1.70;;;;;;;;;;5104960;28;20744;-19
2022/05/17 04:17:10;;;;;;;2.28;1.65;;;;;;;;;;5100920;28;20221;-19
2022/05/17 04:19:37;;;;;;;2.90;1.67;;;;;;;;;;5104409;28;20243;-19
2022/05/17 04:22:06;;;;;;;2.20;1.60;;;;;;;;;;5100266;28;20244;-18
2022/05/17 04:24:34;;;;;;;2.42;1.75;;;;;;;;;;5101098;28;20221;-19
2022/05/17 04:27:01;;;;;;;2.88;1.40;;;;;;;;;;5103719;28;20239;-19
2022/05/17 04:29:28;;;;;;;2.40;1.25;;;;;;;;;;5101247;28;20747;-19
2022/05/17 04:31:57;;;;;;;3.22;1.70;;;;;;;;;;5104411;28;20243;-19
2022/05/17 04:34:24;;;;;;;2.13;1.52;;;;;;;;;;5103950;28;20309;-19
2022/05/17 04:36:52;;;;;;;3.42;1.42;;;;;;;;;;5100501;28;20718;-19
2022/05/17 04:39:19;;;;;;;2.67;1.42;;;;;;;;;;5102429;28;20232;-19
2022/05/17 04:41:46;;;;;;;3.10;1.52;;;;;;;;;;5102558;28;20964;-19
2022/05/17 04:44:14;;;;;;;4.57;2.00;;;;;;;;;;5100892;27;20236;-19
2022/05/17 04:46:41;;;;;;;4.28;1.70;;;;;;;;;;5108137;28;20216;-19
2022/05/17 04:49:10;;;;;;;2.58;1.50;;;;;;;;;;5100598;28;20255;-19
2022/05/17 04:51:37;;;;;;;2.50;1.75;;;;;;;;;;5103171;28;20244;-19
2022/05/17 04:54:04;;;;;;;3.00;1.85;;;;;;;;;;5103574;28;20236;-18
2022/05/17 04:56:34;;;;;;;1.90;1.35;;;;;;;;;;5104201;28;20224;-19
2022/05/17 04:59:01;;;;;;;2.88;1.83;;;;;;;;;;5100192;28;20235;-19
2022/05/17 05:01:29;;;;;;;2.83;1.85;;;;;;;;;;5103167;28;20224;-19
2022/05/17 05:03:56;;;;;;;1.77;1.50;;;;;;;;;;5103673;28;20892;-19
2022/05/17 05:06:27;;;;;;;3.33;1.83;;;;;;;;;;5108283;27;20228;-19
2022/05/17 05:08:54;;;;;;;2.08;1.40;;;;;;;;;;5102837;28;20228;-19
2022/05/17 05:11:21;;;;;;;2.72;1.83;;;;;;;;;;5103332;28;20233;-19
2022/05/17 05:13:48;;;;;;;2.97;1.90;;;;;;;;;;5101231;27;20223;-19
2022/05/17 05:16:16;;;;;;;3.28;1.85;;;;;;;;;;5099252;28;20221;-19
2022/05/17 05:18:43;;;;;;;3.30;1.65;;;;;;;;;;5102161;28;21083;-19
2022/05/17 05:21:11;;;;;;;3.20;1.80;;;;;;;;;;5100127;28;20244;-19
2022/05/17 05:23:41;;;;;;;4.50;1.55;;;;;;;;;;5100079;28;20237;-19
2022/05/17 05:26:08;;;;;;;2.50;1.80;;;;;;;;;;5103226;28;20247;-18
2022/05/17 05:28:36;;;;;;;2.47;1.60;;;;;;;;;;5103177;27;20229;-19
2022/05/17 05:31:04;;;;;;;2.10;1.55;;;;;;;;;;5099849;28;20225;-18
2022/05/17 05:33:31;;;;;;;3.25;1.77;;;;;;;;;;5091658;28;20235;-19
2022/05/17 05:35:59;;;;;;;2.90;1.45;;;;;;;;;;5102827;28;20219;-19
2022/05/17 05:38:26;;;;;;;2.03;1.70;;;;;;;;;;5102197;28;20237;-19
2022/05/17 05:40:55;;;;;;;3.83;1.50;;;;;;;;;;5104086;28;20227;-19
2022/05/17 05:43:23;;;;;;;3.03;1.80;;;;;;;;;;5099460;28;20286;-19
2022/05/17 05:45:50;;;;;;;2.55;1.67;;;;;;;;;;5101373;28;20715;-19
2022/05/17 05:48:18;;;;;;;3.63;1.55;;;;;;;;;;5101376;28;20220;-18
2022/05/17 05:50:47;;;;;;;3.97;1.67;;;;;;;;;;5104238;28;20836;-18
2022/05/17 05:53:14;;;;;;;2.72;1.73;;;;;;;;;;5101565;28;20228;-19
2022/05/17 05:55:41;;;;;;;4.78;1.70;;;;;;;;;;5100044;28;20221;-19
2022/05/17 05:58:10;;;;;;;1.92;1.70;;;;;;;;;;5103071;28;20625;-19
2022/05/17 06:00:38;;;;;;;4.78;1.92;;;;;;;;;;5101747;28;20343;-19
2022/05/17 06:03:05;;;;;;;4.38;2.22;;;;;;;;;;5099329;28;20230;-19
2022/05/17 06:05:34;;;;;;;4.93;2.53;;;;;;;;;;5098042;28;20243;-19
2022/05/17 06:08:01;;;;;;;4.28;1.92;;;;;;;;;;5099541;28;20224;-18
2022/05/17 06:10:28;;;;;;;4.47;2.28;;;;;;;;;;5102242;28;20702;-19
2022/05/17 06:12:56;;;;;;;4.50;2.10;;;;;;;;;;5102376;28;20228;-19
2022/05/17 06:15:24;;;;;;;4.47;2.10;;;;;;;;;;5100272;28;20212;-19
2022/05/17 06:17:52;;;;;;;5.63;2.38;;;;;;;;;;5101510;28;20272;-19
2022/05/17 06:20:19;;;;;;;4.15;2.10;;;;;;;;;;5100396;28;20232;-19
2022/05/17 06:22:47;;;;;;;2.78;2.03;;;;;;;;;;5075954;28;20222;-19
2022/05/17 06:25:14;;;;;;;3.50;2.10;;;;;;;;;;5083044;28;20656;-19
2022/05/17 06:27:41;;;;;;;5.47;2.40;;;;;;;;;;5082915;28;20235;-19
2022/05/17 06:30:10;;;;;;;2.95;2.00;;;;;;;;;;5084898;28;20252;-19
2022/05/17 06:32:38;;;;;;;4.60;2.17;;;;;;;;;;5081115;28;20233;-19
2022/05/17 06:35:06;;;;;;;3.38;2.20;;;;;;;;;;5085949;28;20248;-18
2022/05/17 06:37:33;;;;;;;5.35;2.17;;;;;;;;;;5078290;28;20240;-18
2022/05/17 06:40:01;;;;;;;3.78;2.33;;;;;;;;;;5085425;28;20232;-18
2022/05/17 06:42:28;;;;;;;4.80;2.17;;;;;;;;;;5082534;28;20277;-19
2022/05/17 06:44:56;;;;;;;3.67;1.98;;;;;;;;;;5083774;28;20246;-19
2022/05/17 06:47:23;;;;;;;4.50;2.13;;;;;;;;;;5084482;28;20234;-19
2022/05/17 06:49:52;;;;;;;7.22;2.95;;;;;;;;;;5083382;28;20229;-18
2022/05/17 06:52:22;;;;;;;5.25;2.20;;;;;;;;;;5083631;28;20230;-19
2022/05/17 06:54:50;;;;;;;4.97;2.15;;;;;;;;;;5080289;28;20226;-20
2022/05/17 06:57:17;;;;;;;3.50;2.15;;;;;;;;;;5080000;28;20232;-20
2022/05/17 06:59:45;;;;;;;2.55;1.67;;;;;;;;;;5073114;28;21019;-20
2022/05/17 07:02:12;;;;;;;4.07;1.95;;;;;;;;;;5082623;28;20217;-19
2022/05/17 07:04:40;;;;;;;3.60;2.10;;;;;;;;;;5084526;28;20252;-20
2022/05/17 07:07:09;;;;;;;4.32;1.95;;;;;;;;;;5080800;28;20297;-20
2022/05/17 07:09:36;;;;;;;5.18;2.00;;;;;;;;;;5081807;28;20229;-20
2022/05/17 07:14:50;;;;;;;3.25;2.03;;;;;;;;;;5082212;28;20221;-20
2022/05/17 07:17:18;;;;;;;3.67;1.70;;;;;;;;;;5082695;28;20336;-20
2022/05/17 07:19:45;;;;;;;3.15;2.10;;;;;;;;;;5085390;28;20240;-19
2022/05/17 07:22:14;;;;;;;3.25;1.95;;;;;;;;;;5100880;28;20252;-20
2022/05/17 07:24:41;;;;;;;3.13;1.80;;;;;;;;;;5102032;28;20245;-19
2022/05/17 07:27:09;;;;;;;4.03;1.90;;;;;;;;;;5104732;28;20271;-19
2022/05/17 07:29:46;;;;;;;3.75;1.80;;;;;;;;;;5105789;28;20232;-19
2022/05/17 07:32:14;;;;;;;4.50;1.80;;;;;;;;;;5101511;28;20289;-20
2022/05/17 07:34:41;;;;;;;3.72;1.88;;;;;;;;;;5102578;28;20221;-19
2022/05/17 07:37:09;;;;;;;3.08;1.73;;;;;;;;;;5104650;28;20260;-20
2022/05/17 07:39:37;;;;;;;2.55;1.50;;;;;;;;;;5105453;28;20315;-19
2022/05/17 07:42:05;;;;;;;3.70;1.83;;;;;;;;;;5101485;28;20236;-19
2022/05/17 07:44:33;;;;;;;4.07;1.90;;;;;;;;;;5100869;28;20232;-20
2022/05/17 07:47:00;;;;;;;3.00;2.13;;;;;;;;;;5105599;28;20235;-19
2022/05/17 07:49:27;;;;;;;3.15;1.90;;;;;;;;;;5103776;28;20241;-19
2022/05/17 07:51:55;;;;;;;4.20;2.10;;;;;;;;;;5104512;28;20233;-19
2022/05/17 07:54:22;;;;;;;3.33;1.90;;;;;;;;;;5104712;28;20228;-19
2022/05/17 07:56:51;;;;;;;4.40;1.90;;;;;;;;;;5102896;28;20699;-20
2022/05/17 07:59:18;;;;;;;4.60;2.13;;;;;;;;;;5102594;28;20247;-20
2022/05/17 08:01:46;;;;;;;4.60;1.98;;;;;;;;;;5100942;28;20750;-20
2022/05/17 08:04:13;;;;;;;4.10;2.15;;;;;;;;;;5103824;28;20251;-20
2022/05/17 08:06:41;;;;;;;3.35;1.50;;;;;;;;;;5101347;28;20263;-18
2022/05/17 08:09:08;;;;;;;4.38;1.90;;;;;;;;;;5103700;28;20228;-19
2022/05/17 08:11:36;;;;;;;3.25;1.63;;;;;;;;;;5104295;28;20687;-19
2022/05/17 08:14:04;;;;;;;5.38;1.75;;;;;;;;;;5101026;28;20219;-19
2022/05/17 08:16:40;;;;;;;3.80;1.90;;;;;;;;;;5104557;28;20691;-20
2022/05/17 08:19:07;;;;;;;3.85;2.00;;;;;;;;;;5100948;28;20641;-19
2022/05/17 08:21:34;;;;;;;6.35;1.85;;;;;;;;;;5104219;28;21084;-19
2022/05/17 08:24:02;;;;;;;3.22;2.00;;;;;;;;;;5104611;28;20231;-19
2022/05/17 08:29:15;;;;;;;2.20;1.40;;;;;;;;;;5105144;28;20228;-19
2022/05/17 08:33:14;;;;;;;4.32;1.80;;;;;;;;;;5100291;28;20320;-19
2022/05/17 08:34:30;;;;;;;4.18;1.60;;;;;;;;;;5102598;28;20228;-20
2022/05/17 08:36:57;;;;;;;3.92;1.65;;;;;;;;;;5103940;28;20228;-19
2022/05/17 08:39:26;;;;;;;2.75;1.48;;;;;;;;;;5103921;28;20236;-19
2022/05/17 08:41:54;;;;;;;3.72;1.70;;;;;;;;;;5101576;28;20222;-19
2022/05/17 08:44:24;;;;;;;2.88;1.60;;;;;;;;;;5101634;28;21019;-19
2022/05/17 08:46:56;;;;;;;2.95;1.50;;;;;;;;;;5101454;28;20247;-19
2022/05/17 08:49:45;;;;;;;3.42;1.58;;;;;;;;;;5101557;28;20236;-18
2022/05/17 08:52:14;;;;;;;3.80;1.70;;;;;;;;;;5102547;28;20232;-18
2022/05/17 08:54:42;;;;;;;2.88;1.48;;;;;;;;;;5101017;28;21004;-19
2022/05/17 08:57:11;;;;;;;3.55;1.27;;;;;;;;;;5102946;27;20224;-19
2022/05/17 08:59:41;;;;;;;2.53;1.52;;;;;;;;;;5099972;28;20746;-18
2022/05/17 09:02:10;;;;;;;3.20;1.40;;;;;;;;;;5103546;28;20217;-18
2022/05/17 09:04:56;;;;;;;4.70;1.45;;;;;;;;;;5103412;28;20252;-19
2022/05/17 09:07:24;;;;;;;2.97;1.77;;;;;;;;;;5099845;28;20695;-19
2022/05/17 09:09:57;;;;;;;3.50;1.63;;;;;;;;;;5102411;28;20237;-19
2022/05/17 09:12:26;;;;;;;4.20;1.30;;;;;;;;;;5101177;28;20714;-19
2022/05/17 09:14:55;;;;;;;3.10;1.65;;;;;;;;;;5102216;28;20708;-19
2022/05/17 09:17:24;;;;;;;2.47;1.40;;;;;;;;;;5102173;27;20700;-19
2022/05/17 09:19:51;;;;;;;2.05;1.35;;;;;;;;;;5101362;28;20231;-19
2022/05/17 09:22:19;;;;;;;2.67;1.27;;;;;;;;;;5101137;28;21025;-19
2022/05/17 09:24:46;;;;;;;2.90;1.60;;;;;;;;;;5101455;28;20229;-19
2022/05/17 09:27:21;;;;;;;3.17;1.30;;;;;;;;;;5100441;28;20241;-19
2022/05/17 09:29:49;;;;;;;6.78;1.90;;;;;;;;;;5097053;28;20238;-19
2022/05/17 09:32:23;;;;;;;3.45;1.50;;;;;;;;;;5099903;28;20224;-18
2022/05/17 09:34:56;;;;;;;2.75;1.30;;;;;;;;;;5099736;28;20228;-19
2022/05/17 09:37:23;;;;;;;3.00;1.60;;;;;;;;;;5101865;28;20688;-18
2022/05/17 09:39:51;;;;;;;4.47;1.92;;;;;;;;;;5102220;28;20330;-19
2022/05/17 09:42:21;;;;;;;2.00;1.15;;;;;;;;;;5101351;28;20239;-19
2022/05/17 09:44:49;;;;;;;3.30;1.42;;;;;;;;;;5101129;28;20719;-18
2022/05/17 09:47:29;;;;;;;3.05;1.45;;;;;;;;;;5102443;28;20256;-18
2022/05/17 09:52:44;;;;;;;3.85;1.40;;;;;;;;;;5099950;28;20718;-18
2022/05/17 09:55:13;;;;;;;2.88;1.83;;;;;;;;;;5102851;28;20223;-18
2022/05/17 09:57:51;;;;;;;2.22;1.15;;;;;;;;;;5099226;28;20235;-18
2022/05/17 10:00:22;;;;;;;3.00;1.38;;;;;;;;;;5102096;28;20232;-20
2022/05/17 10:02:51;;;;;;;1.85;1.00;;;;;;;;;;5106386;28;20239;-19
2022/05/17 10:05:21;;;;;;;2.05;1.10;;;;;;;;;;5104713;28;20685;-19
2022/05/17 10:07:50;;;;;;;3.45;1.50;;;;;;;;;;5104519;28;20777;-18
2022/05/17 10:10:27;;;;;;;3.38;1.38;;;;;;;;;;5106388;28;20234;-19
2022/05/17 10:12:56;;;;;;;3.28;1.55;;;;;;;;;;5105820;27;20224;-19
2022/05/17 10:15:24;;;;;;;3.08;1.38;;;;;;;;;;5105750;28;20625;-18
2022/05/17 10:17:53;;;;;;;2.95;1.17;;;;;;;;;;5104205;28;20701;-18
2022/05/17 10:20:23;;;;;;;3.25;1.45;;;;;;;;;;5104886;28;20228;-19
2022/05/17 10:22:52;;;;;;;3.45;1.45;;;;;;;;;;5060992;28;20249;-19
2022/05/17 10:25:21;;;;;;;2.63;1.25;;;;;;;;;;5063849;28;20229;-19
2022/05/17 10:27:50;;;;;;;5.15;1.48;;;;;;;;;;5063522;28;20669;-19
2022/05/17 10:30:18;;;;;;;2.55;1.58;;;;;;;;;;5065226;28;20229;-19
2022/05/17 10:32:47;;;;;;;3.17;1.60;;;;;;;;;;5064423;28;20224;-19
2022/05/17 10:35:17;;;;;;;3.13;1.42;;;;;;;;;;5062362;28;20609;-19
2022/05/17 10:37:47;;;;;;;2.53;1.40;;;;;;;;;;5064330;28;20240;-19
2022/05/17 10:40:15;;;;;;;3.50;1.33;;;;;;;;;;5062210;28;20234;-19
2022/05/17 10:42:42;;;;;;;2.58;1.55;;;;;;;;;;5064118;28;20685;-18
2022/05/17 10:45:10;;;;;;;6.07;1.95;;;;;;;;;;5061893;28;20234;-19
2022/05/17 10:47:46;;;;;;;3.67;1.50;;;;;;;;;;5065126;28;20246;-19
2022/05/17 10:50:19;;;;;;;3.20;1.50;;;;;;;;;;5064156;28;20228;-19
2022/05/17 10:52:52;;;;;;;4.93;1.40;;;;;;;;;;5062942;28;20226;-19
2022/05/17 10:55:21;;;;;;;4.05;1.40;;;;;;;;;;5063961;28;20222;-19
2022/05/17 10:57:52;;;;;;;3.47;1.30;;;;;;;;;;5063339;28;20229;-19
2022/05/17 11:00:22;;;;;;;2.47;1.30;;;;;;;;;;5063786;28;20855;-19
2022/05/17 11:02:55;;;;;;;2.38;1.30;;;;;;;;;;5063146;28;21015;-19
2022/05/17 11:05:25;;;;;;;5.65;1.55;;;;;;;;;;5063089;28;20314;-19
2022/05/17 11:07:56;;;;;;;3.10;1.48;;;;;;;;;;5061724;28;20646;-18
2022/05/17 11:10:32;;;;;;;2.85;1.58;;;;;;;;;;5063084;28;20230;-19
2022/05/17 11:13:02;;;;;;;4.82;1.30;;;;;;;;;;5064853;28;20225;-19
2022/05/17 11:15:32;;;;;;;3.38;1.58;;;;;;;;;;5064822;28;20214;-18
2022/05/17 11:18:02;;;;;;;5.03;1.60;;;;;;;;;;5060898;28;20240;-19
2022/05/17 11:20:32;;;;;;;5.38;1.80;;;;;;;;;;5063188;28;20260;-19
2022/05/17 11:23:03;;;;;;;2.83;1.30;;;;;;;;;;5105245;28;20228;-19
2022/05/17 11:25:36;;;;;;;5.78;1.50;;;;;;;;;;5102062;28;20225;-19
2022/05/17 11:28:10;;;;;;;2.47;1.27;;;;;;;;;;5101534;28;20335;-18
2022/05/17 11:30:39;;;;;;;3.10;1.42;;;;;;;;;;5100654;28;20229;-19
2022/05/17 11:33:30;;;;;;;4.18;1.63;;;;;;;;;;5104917;28;20931;-19
2022/05/17 11:35:59;;;;;;;4.80;1.60;;;;;;;;;;5101671;28;20243;-19
2022/05/17 11:38:44;;;;;;;3.85;1.38;;;;;;;;;;5104481;28;20221;-19
2022/05/17 11:41:14;;;;;;;3.15;1.02;;;;;;;;;;5104940;28;21012;-19
2022/05/17 11:43:46;;;;;;;5.60;1.70;;;;;;;;;;5101616;28;20231;-18
2022/05/17 11:46:31;;;;;;;5.93;1.95;;;;;;;;;;5102468;28;20237;-19
2022/05/17 11:48:59;;;;;;;4.63;1.75;;;;;;;;;;5094201;28;20342;-19
2022/05/17 11:51:31;;;;;;;3.80;1.70;;;;;;;;;;5100237;28;20232;-19
2022/05/17 11:53:58;;;;;;;5.28;1.48;;;;;;;;;;5101475;28;20259;-18
2022/05/17 11:56:33;;;;;;;6.10;1.30;;;;;;;;;;5103114;28;20233;-18
2022/05/17 11:59:01;;;;;;;5.30;1.48;;;;;;;;;;5101423;28;20706;-19
2022/05/17 12:01:45;;;;;;;5.28;1.27;;;;;;;;;;5103661;28;20650;-19
2022/05/17 12:04:33;;;;;;;3.55;1.50;;;;;;;;;;5102050;28;20228;-19
2022/05/17 12:07:05;;;;;;;5.00;1.63;;;;;;;;;;5094677;28;20236;-19
2022/05/17 12:09:33;;;;;;;3.80;1.40;;;;;;;;;;5101630;28;20323;-19
2022/05/17 12:12:16;;;;;;;4.25;1.70;;;;;;;;;;5104397;28;20228;-19
2022/05/17 12:14:46;;;;;;;5.03;1.80;;;;;;;;;;5090272;28;20228;-18
2022/05/17 12:17:15;;;;;;;5.93;1.77;;;;;;;;;;5101370;28;20221;-19
2022/05/17 12:19:45;;;;;;;3.75;1.45;;;;;;;;;;5101466;28;20233;-18
2022/05/17 12:22:16;;;;;;;3.55;1.30;;;;;;;;;;5101076;27;20255;-19
2022/05/17 12:24:48;;;;;;;3.35;1.73;;;;;;;;;;5103927;28;20955;-19
2022/05/17 12:27:23;;;;;;;6.05;1.75;;;;;;;;;;5101955;28;20243;-19
2022/05/17 12:32:39;;;;;;;5.82;1.75;;;;;;;;;;5101003;28;20224;-19
2022/05/17 12:35:08;;;;;;;3.88;1.65;;;;;;;;;;5102666;28;20224;-18
2022/05/17 12:37:40;;;;;;;4.13;1.45;;;;;;;;;;5104304;28;20237;-19
2022/05/17 12:43:06;;;;;;;6.45;2.00;;;;;;;;;;5099598;28;20250;-19
2022/05/17 12:45:34;;;;;;;4.22;1.75;;;;;;;;;;5102660;28;20736;-19
2022/05/17 12:48:03;;;;;;;3.28;1.40;;;;;;;;;;5103225;28;20270;-19
2022/05/17 12:50:37;;;;;;;6.15;1.63;;;;;;;;;;5100432;28;20225;-19
2022/05/17 12:53:10;;;;;;;5.07;1.40;;;;;;;;;;5100852;28;20235;-19
2022/05/17 12:55:37;;;;;;;3.75;1.63;;;;;;;;;;5099967;28;20236;-19
2022/05/17 12:58:08;;;;;;;6.95;1.90;;;;;;;;;;5103302;28;20245;-19
2022/05/17 13:00:35;;;;;;;4.93;1.55;;;;;;;;;;5100193;28;20760;-18
2022/05/17 13:03:03;;;;;;;3.72;1.65;;;;;;;;;;5100262;28;20213;-18
2022/05/17 13:05:33;;;;;;;5.72;1.75;;;;;;;;;;5103355;28;20240;-18
2022/05/17 13:08:00;;;;;;;4.00;1.70;;;;;;;;;;5102923;27;20236;-19
2022/05/17 13:10:29;;;;;;;5.30;1.73;;;;;;;;;;5103439;28;20219;-19
2022/05/17 13:12:56;;;;;;;7.10;1.80;;;;;;;;;;5099946;28;20236;-19
2022/05/17 13:15:25;;;;;;;5.80;2.20;;;;;;;;;;5102656;28;20584;-18
2022/05/17 13:17:53;;;;;;;5.43;1.90;;;;;;;;;;5099062;28;20577;-18
2022/05/17 13:20:21;;;;;;;4.53;1.88;;;;;;;;;;5101107;27;20232;-19
2022/05/17 13:22:51;;;;;;;3.97;1.95;;;;;;;;;;5101524;28;20799;-19
2022/05/17 13:25:19;;;;;;;5.97;2.05;;;;;;;;;;5101671;28;21041;-19
2022/05/17 13:27:48;;;;;;;2.88;1.63;;;;;;;;;;5101079;28;20707;-18
2022/05/17 13:30:26;;;;;;;4.07;1.77;;;;;;;;;;5101034;28;20225;-19
2022/05/17 13:32:54;;;;;;;5.05;2.28;;;;;;;;;;5101818;27;20271;-19
2022/05/17 13:35:22;;;;;;;4.70;2.00;;;;;;;;;;5101032;28;20231;-18
2022/05/17 13:37:57;;;;;;;5.70;1.85;;;;;;;;;;5100829;28;20229;-19
2022/05/17 13:40:34;;;;;;;5.65;2.10;;;;;;;;;;5102169;28;20227;-19
2022/05/17 13:43:04;;;;;;;4.10;1.80;;;;;;;;;;5099524;28;20212;-19
2022/05/17 13:45:34;;;;;;;5.35;1.92;;;;;;;;;;5102501;28;20343;-19
2022/05/17 13:48:01;;;;;;;5.32;2.15;;;;;;;;;;5099381;28;20241;-19
2022/05/17 13:50:35;;;;;;;4.53;2.00;;;;;;;;;;5099524;28;20310;-18
2022/05/17 13:53:03;;;;;;;4.15;1.70;;;;;;;;;;5106947;27;20229;-19
2022/05/17 13:55:31;;;;;;;6.20;2.10;;;;;;;;;;5102691;28;20232;-19
2022/05/17 13:57:59;;;;;;;5.78;2.13;;;;;;;;;;5099626;28;20221;-19
2022/05/17 14:00:29;;;;;;;4.78;2.08;;;;;;;;;;5102404;28;20679;-19
2022/05/17 14:02:57;;;;;;;6.30;2.10;;;;;;;;;;5101165;28;21134;-19
2022/05/17 14:05:26;;;;;;;6.10;2.20;;;;;;;;;;5100082;28;20228;-19
2022/05/17 14:07:56;;;;;;;6.55;2.20;;;;;;;;;;5101512;28;20330;-19
2022/05/17 14:13:10;;;;;;;6.93;1.92;;;;;;;;;;5098511;28;20241;-18
2022/05/17 14:15:38;;;;;;;5.80;2.40;;;;;;;;;;5099305;28;20224;-18
2022/05/17 14:18:06;;;;;;;5.20;2.08;;;;;;;;;;5102469;28;20224;-18
2022/05/17 14:20:34;;;;;;;5.88;2.30;;;;;;;;;;5098873;28;20623;-18
2022/05/17 14:23:01;;;;;;;5.45;2.38;;;;;;;;;;5102246;28;20951;-19
2022/05/17 14:25:29;;;;;;;5.00;2.03;;;;;;;;;;5103034;27;20232;-19
2022/05/17 14:27:57;;;;;;;5.45;2.30;;;;;;;;;;5106831;28;20706;-19
2022/05/17 14:30:24;;;;;;;3.92;1.90;;;;;;;;;;5101236;28;20252;-19
2022/05/17 14:32:57;;;;;;;5.47;2.03;;;;;;;;;;5098228;28;20232;-19
2022/05/17 14:35:25;;;;;;;5.43;2.20;;;;;;;;;;5097549;28;20236;-19
2022/05/17 14:37:53;;;;;;;4.32;1.90;;;;;;;;;;5100154;28;20228;-19
2022/05/17 14:40:20;;;;;;;5.55;2.20;;;;;;;;;;5100738;28;20627;-19
2022/05/17 14:42:48;;;;;;;5.32;2.22;;;;;;;;;;5100881;28;20230;-19
2022/05/17 14:45:18;;;;;;;5.55;2.05;;;;;;;;;;5101278;27;20216;-19
2022/05/17 14:47:47;;;;;;;4.93;1.90;;;;;;;;;;5104816;28;21070;-19
2022/05/17 14:50:18;;;;;;;3.58;2.17;;;;;;;;;;5104478;28;20267;-19
2022/05/17 14:52:45;;;;;;;6.57;2.17;;;;;;;;;;5102734;28;20229;-19
2022/05/17 14:55:13;;;;;;;9.60;2.67;;;;;;;;;;5104477;28;20232;-19
2022/05/17 14:57:40;;;;;;;7.05;2.00;;;;;;;;;;5105396;28;20227;-19
2022/05/17 15:00:08;;;;;;;4.15;1.92;;;;;;;;;;5106300;28;21071;-19
2022/05/17 15:02:36;;;;;;;9.27;2.15;;;;;;;;;;5101877;28;20229;-19
2022/05/17 15:05:04;;;;;;;6.20;1.88;;;;;;;;;;5106128;28;20228;-19
2022/05/17 15:07:33;;;;;;;5.57;2.03;;;;;;;;;;5105601;28;20228;-19
2022/05/17 15:10:02;;;;;;;3.10;1.80;;;;;;;;;;5101344;28;20239;-19
2022/05/17 15:12:31;;;;;;;4.78;1.88;;;;;;;;;;5102276;28;20311;-19